createdAt,value
2022-08-20T00:02:21.047Z,4.38
2022-08-20T00:04:47.310Z,3.78
2022-08-20T00:07:14.266Z,3.83
2022-08-20T00:09:41.648Z,3.80
2022-08-20T00:12:08.622Z,4.07
2022-08-20T00:14:35.279Z,4.32
2022-08-20T00:17:02.178Z,3.90
2022-08-20T00:19:28.447Z,4.18
2022-08-20T00:21:56.442Z,4.00
2022-08-20T00:24:24.756Z,4.40
2022-08-20T00:26:52.602Z,3.90
2022-08-20T00:29:20.141Z,4.15
2022-08-20T00:31:46.597Z,4.40
2022-08-20T00:34:12.867Z,4.35
2022-08-20T00:36:39.182Z,4.22
2022-08-20T00:39:05.420Z,4.60
2022-08-20T00:41:31.838Z,3.90
2022-08-20T00:44:09.660Z,4.18
2022-08-20T00:46:36.171Z,4.20
2022-08-20T00:49:05.778Z,4.22
2022-08-20T00:51:34.611Z,4.10
2022-08-20T00:54:02.991Z,4.00
2022-08-20T00:56:33.268Z,3.70
2022-08-20T00:58:59.718Z,3.67
2022-08-20T01:01:26.015Z,3.80
2022-08-20T01:03:57.015Z,3.78
2022-08-20T01:06:25.080Z,3.20
2022-08-20T01:08:51.639Z,4.07
2022-08-20T01:11:21.651Z,3.47
2022-08-20T01:13:48.451Z,3.50
2022-08-20T01:16:18.349Z,3.97
2022-08-20T01:18:45.262Z,3.67
2022-08-20T01:21:11.538Z,4.10
2022-08-20T01:23:46.195Z,3.60
2022-08-20T01:26:21.064Z,3.85
2022-08-20T01:28:49.497Z,3.92
2022-08-20T01:31:20.252Z,4.00
2022-08-20T01:36:15.380Z,3.80
2022-08-20T01:38:41.962Z,3.75
2022-08-20T01:41:35.012Z,4.20
2022-08-20T01:44:01.250Z,3.53
2022-08-20T01:46:29.860Z,3.30
2022-08-20T01:48:56.897Z,3.40
2022-08-20T01:51:25.029Z,2.92
2022-08-20T01:53:52.795Z,3.35
2022-08-20T01:56:21.392Z,3.60
2022-08-20T01:58:58.919Z,3.40
2022-08-20T02:01:35.419Z,3.42
2022-08-20T02:04:15.399Z,3.70
2022-08-20T02:06:56.515Z,3.08
2022-08-20T02:09:23.997Z,3.60
2022-08-20T02:11:50.338Z,2.65
2022-08-20T02:14:16.715Z,3.63
2022-08-20T02:16:52.381Z,3.35
2022-08-20T02:19:33.766Z,3.50
2022-08-20T02:22:02.264Z,3.42
2022-08-20T02:24:29.881Z,3.90
2022-08-20T02:26:56.183Z,3.53
2022-08-20T02:29:22.454Z,3.72
2022-08-20T02:32:32.769Z,4.28
2022-08-20T02:34:35.501Z,3.80
2022-08-20T02:37:02.517Z,4.75
2022-08-20T02:39:28.843Z,3.85
2022-08-20T02:41:55.112Z,4.40
2022-08-20T02:44:21.448Z,4.25
2022-08-20T02:46:50.006Z,4.85
2022-08-20T02:49:17.616Z,4.85
2022-08-20T02:51:44.382Z,4.70
2022-08-20T02:54:11.615Z,5.10
2022-08-20T02:56:38.361Z,4.65
2022-08-20T02:59:04.805Z,4.80
2022-08-20T03:01:31.403Z,5.05
2022-08-20T03:04:00.012Z,4.35
2022-08-20T03:06:26.606Z,4.80
2022-08-20T03:08:53.140Z,4.90
2022-08-20T03:11:20.451Z,4.85
2022-08-20T03:13:47.142Z,5.05
2022-08-20T03:16:13.745Z,5.28
2022-08-20T03:18:42.241Z,5.15
2022-08-20T03:21:09.920Z,5.13
2022-08-20T03:23:38.027Z,4.75
2022-08-20T03:26:08.163Z,4.60
2022-08-20T03:28:34.682Z,4.70
2022-08-20T03:31:01.335Z,5.57
2022-08-20T03:33:28.064Z,4.90
2022-08-20T03:35:54.650Z,4.88
2022-08-20T03:38:32.315Z,4.90
2022-08-20T03:40:59.610Z,4.38
2022-08-20T03:43:25.834Z,5.00
2022-08-20T03:45:52.299Z,4.63
2022-08-20T03:48:20.075Z,4.55
2022-08-20T03:50:47.202Z,4.80
2022-08-20T03:53:14.739Z,4.68
2022-08-20T03:55:43.159Z,5.07
2022-08-20T03:58:13.371Z,5.53
2022-08-20T04:00:42.146Z,5.25
2022-08-20T04:03:08.693Z,5.38
2022-08-20T04:05:36.751Z,5.50
2022-08-20T04:08:03.929Z,5.47
2022-08-20T04:10:30.743Z,5.55
2022-08-20T04:12:57.007Z,5.45
2022-08-20T04:15:24.412Z,5.13
2022-08-20T04:17:50.799Z,5.88
2022-08-20T04:20:19.054Z,5.70
2022-08-20T04:22:50.825Z,5.47
2022-08-20T04:25:26.039Z,5.30
2022-08-20T04:27:53.325Z,5.32
2022-08-20T04:30:20.810Z,4.88
2022-08-20T04:32:47.144Z,4.97
2022-08-20T04:35:20.072Z,5.03
2022-08-20T04:37:46.711Z,4.55
2022-08-20T04:40:35.353Z,4.25
2022-08-20T04:43:02.035Z,4.97
2022-08-20T04:45:28.298Z,4.35
2022-08-20T04:47:55.030Z,4.63
2022-08-20T04:50:22.241Z,4.75
2022-08-20T04:52:49.183Z,4.45
2022-08-20T04:55:17.068Z,5.20
2022-08-20T04:57:43.475Z,5.40
2022-08-20T05:00:14.147Z,5.75
2022-08-20T05:02:40.955Z,7.20
2022-08-20T05:05:08.671Z,7.90
2022-08-20T05:07:41.718Z,8.57
2022-08-20T05:10:09.092Z,8.93
2022-08-20T05:12:35.367Z,11.00
2022-08-20T05:15:02.184Z,12.45
2022-08-20T05:17:29.335Z,13.95
2022-08-20T05:19:55.607Z,14.40
2022-08-20T05:22:22.718Z,14.32
2022-08-20T05:24:49.391Z,14.07
2022-08-20T05:27:24.611Z,15.30
2022-08-20T05:29:53.173Z,15.20
2022-08-20T05:32:20.978Z,15.05
2022-08-20T05:34:47.381Z,14.93
2022-08-20T05:37:13.851Z,14.48
2022-08-20T05:39:40.527Z,15.23
2022-08-20T05:42:06.900Z,16.10
2022-08-20T05:44:33.144Z,16.45
2022-08-20T05:46:59.450Z,16.15
2022-08-20T05:49:26.827Z,14.95
2022-08-20T05:51:53.082Z,14.98
2022-08-20T05:54:19.491Z,16.15
2022-08-20T05:56:45.753Z,16.15
2022-08-20T05:59:13.876Z,15.35
2022-08-20T06:01:41.983Z,17.25
2022-08-20T06:04:27.642Z,16.50
2022-08-20T06:06:59.545Z,16.58
2022-08-20T06:09:30.595Z,15.98
2022-08-20T06:11:59.536Z,16.13
2022-08-20T06:14:26.528Z,17.02
2022-08-20T06:16:57.829Z,16.15
2022-08-20T06:19:26.374Z,17.73
2022-08-20T06:21:53.159Z,18.10
2022-08-20T06:24:20.269Z,18.35
2022-08-20T06:26:46.548Z,17.25
2022-08-20T06:29:12.857Z,16.38
2022-08-20T06:31:39.937Z,17.45
2022-08-20T06:34:07.360Z,18.17
2022-08-20T06:36:34.373Z,17.15
2022-08-20T06:39:00.668Z,18.15
2022-08-20T06:41:37.074Z,18.08
2022-08-20T06:44:03.994Z,16.95
2022-08-20T06:46:30.305Z,17.70
2022-08-20T06:48:56.774Z,16.17
2022-08-20T06:51:23.098Z,16.55
2022-08-20T06:53:49.371Z,16.88
2022-08-20T06:56:16.480Z,16.33
2022-08-20T06:58:43.814Z,14.68
2022-08-20T07:01:11.643Z,14.90
2022-08-20T07:03:42.012Z,15.45
2022-08-20T07:06:15.845Z,15.50
2022-08-20T07:08:42.955Z,14.38
2022-08-20T07:11:09.683Z,16.15
2022-08-20T07:13:37.891Z,15.10
2022-08-20T07:16:07.075Z,15.25
2022-08-20T07:18:33.362Z,15.20
2022-08-20T07:20:59.603Z,15.35
2022-08-20T07:23:26.384Z,14.20
2022-08-20T07:25:53.000Z,14.90
2022-08-20T07:28:21.840Z,13.90
2022-08-20T07:31:12.175Z,15.30
2022-08-20T07:33:40.565Z,14.77
2022-08-20T07:36:07.568Z,13.60
2022-08-20T07:38:34.489Z,13.85
2022-08-20T07:41:02.163Z,12.25
2022-08-20T07:43:28.816Z,12.15
2022-08-20T07:45:57.429Z,11.50
2022-08-20T07:48:29.660Z,11.60
2022-08-20T07:50:59.079Z,10.73
2022-08-20T07:53:25.832Z,10.13
2022-08-20T07:55:58.991Z,10.38
2022-08-20T07:58:27.661Z,10.65
2022-08-20T08:00:59.981Z,8.95
2022-08-20T08:03:40.957Z,7.93
2022-08-20T08:06:14.424Z,8.15
2022-08-20T08:08:41.235Z,7.80
2022-08-20T08:11:08.195Z,8.82
2022-08-20T08:13:36.217Z,8.77
2022-08-20T08:16:04.580Z,8.30
2022-08-20T08:18:35.047Z,8.07
2022-08-20T08:21:01.408Z,7.70
2022-08-20T08:23:31.936Z,8.25
2022-08-20T08:25:59.240Z,8.68
2022-08-20T08:28:28.240Z,8.57
2022-08-20T08:30:54.685Z,8.38
2022-08-20T08:33:27.735Z,8.70
2022-08-20T08:35:55.930Z,9.40
2022-08-20T08:38:25.832Z,8.88
2022-08-20T08:40:59.778Z,8.70
2022-08-20T08:43:27.402Z,9.05
2022-08-20T08:48:28.769Z,9.15
2022-08-20T08:50:58.592Z,9.85
2022-08-20T08:53:26.560Z,9.15
2022-08-20T08:55:52.921Z,9.32
2022-08-20T08:58:19.190Z,9.13
2022-08-20T09:00:56.447Z,8.88
2022-08-20T09:03:29.613Z,8.90
2022-08-20T09:05:59.005Z,9.40
2022-08-20T09:08:51.658Z,10.05
2022-08-20T09:11:19.372Z,11.38
2022-08-20T09:13:45.694Z,11.85
2022-08-20T09:16:12.646Z,11.68
2022-08-20T09:18:39.295Z,10.57
2022-08-20T09:21:06.347Z,11.48
2022-08-20T09:23:32.829Z,12.02
2022-08-20T09:25:59.152Z,11.05
2022-08-20T09:28:25.692Z,12.02
2022-08-20T09:30:58.835Z,10.85
2022-08-20T09:33:25.218Z,12.25
2022-08-20T09:35:51.614Z,13.05
2022-08-20T09:38:17.967Z,11.10
2022-08-20T09:40:44.520Z,12.23
2022-08-20T09:43:11.070Z,13.38
2022-08-20T09:45:37.365Z,12.85
2022-08-20T09:48:03.721Z,13.43
2022-08-20T09:50:31.557Z,14.70
2022-08-20T09:52:59.033Z,15.05
2022-08-20T09:55:25.269Z,13.35
2022-08-20T09:57:51.877Z,14.55
2022-08-20T10:00:19.011Z,12.45
2022-08-20T10:02:45.720Z,12.48
2022-08-20T10:05:12.415Z,10.85
2022-08-20T10:07:39.134Z,10.02
2022-08-20T10:10:06.934Z,9.07
2022-08-20T10:12:33.225Z,8.73
2022-08-20T10:14:59.490Z,8.82
2022-08-20T10:17:25.786Z,8.30
2022-08-20T10:19:52.031Z,8.57
2022-08-20T10:22:18.311Z,7.65
2022-08-20T10:24:44.603Z,7.93
2022-08-20T10:27:10.846Z,10.10
2022-08-20T10:29:37.200Z,9.15
2022-08-20T10:32:14.535Z,8.63
2022-08-20T10:34:41.314Z,9.15
2022-08-20T10:37:07.834Z,8.70
2022-08-20T10:39:35.100Z,9.70
2022-08-20T10:42:01.766Z,9.40
2022-08-20T10:44:28.308Z,10.00
2022-08-20T10:46:57.137Z,9.48
2022-08-20T10:49:23.543Z,9.77
2022-08-20T10:51:49.811Z,9.30
2022-08-20T10:54:16.100Z,9.07
2022-08-20T10:56:42.401Z,9.65
2022-08-20T10:59:08.660Z,9.05
2022-08-20T11:01:36.724Z,8.27
2022-08-20T11:04:03.693Z,9.32
2022-08-20T11:06:30.001Z,8.77
2022-08-20T11:08:56.832Z,8.10
2022-08-20T11:11:23.569Z,8.18
2022-08-20T11:13:49.861Z,7.35
2022-08-20T11:16:16.148Z,6.72
2022-08-20T11:18:46.772Z,5.93
2022-08-20T11:21:14.017Z,6.43
2022-08-20T11:23:40.416Z,6.18
2022-08-20T11:26:06.871Z,4.97
2022-08-20T11:28:33.250Z,5.43
2022-08-20T11:31:00.296Z,5.78
2022-08-20T11:33:26.691Z,5.63
2022-08-20T11:35:52.954Z,6.38
2022-08-20T11:38:19.272Z,5.85
2022-08-20T11:40:46.772Z,5.38
2022-08-20T11:43:15.079Z,6.63
2022-08-20T11:45:42.684Z,6.88
2022-08-20T11:48:09.020Z,7.20
2022-08-20T11:50:35.335Z,7.60
2022-08-20T11:53:01.841Z,7.18
2022-08-20T11:55:30.226Z,7.07
2022-08-20T11:58:00.356Z,7.40
2022-08-20T12:00:32.880Z,6.90
2022-08-20T12:03:00.792Z,7.22
2022-08-20T12:05:29.343Z,7.18
2022-08-20T12:07:55.829Z,7.88
2022-08-20T12:10:24.317Z,7.45
2022-08-20T12:12:50.608Z,7.20
2022-08-20T12:15:16.890Z,7.35
2022-08-20T12:17:43.266Z,7.32
2022-08-20T12:20:11.048Z,7.22
2022-08-20T12:22:37.378Z,7.82
2022-08-20T12:25:04.707Z,8.77
2022-08-20T12:27:31.777Z,8.25
2022-08-20T12:29:59.750Z,7.82
2022-08-20T12:32:27.158Z,8.15
2022-08-20T12:34:53.959Z,8.20
2022-08-20T12:37:22.566Z,8.65
2022-08-20T12:39:50.507Z,8.13
2022-08-20T12:42:17.092Z,8.00
2022-08-20T12:44:43.785Z,8.45
2022-08-20T12:47:17.577Z,8.20
2022-08-20T12:49:45.640Z,8.70
2022-08-20T12:52:12.466Z,9.27
2022-08-20T12:54:38.947Z,8.32
2022-08-20T12:57:07.994Z,8.00
2022-08-20T12:59:34.999Z,8.40
2022-08-20T13:02:13.895Z,7.35
2022-08-20T13:04:44.649Z,7.85
2022-08-20T13:07:11.818Z,7.95
2022-08-20T13:09:38.205Z,7.38
2022-08-20T13:12:06.903Z,7.53
2022-08-20T13:14:33.156Z,7.38
2022-08-20T13:17:00.914Z,7.05
2022-08-20T13:19:27.847Z,6.88
2022-08-20T13:21:54.778Z,7.90
2022-08-20T13:24:21.834Z,7.07
2022-08-20T13:26:48.539Z,7.05
2022-08-20T13:29:14.896Z,6.00
2022-08-20T13:31:41.696Z,6.25
2022-08-20T13:34:07.993Z,5.45
2022-08-20T13:36:34.736Z,5.53
2022-08-20T13:39:03.335Z,5.68
2022-08-20T13:41:29.706Z,4.93
2022-08-20T13:43:56.023Z,5.35
2022-08-20T13:46:22.256Z,5.28
2022-08-20T13:48:48.507Z,4.60
2022-08-20T13:51:14.825Z,3.85
2022-08-20T13:53:45.322Z,3.70
2022-08-20T13:56:13.083Z,3.80
2022-08-20T13:58:39.492Z,3.42
2022-08-20T14:01:05.827Z,3.78
2022-08-20T14:03:34.638Z,3.30
2022-08-20T14:06:01.675Z,3.72
2022-08-20T14:08:28.126Z,3.97
2022-08-20T14:10:54.469Z,3.20
2022-08-20T14:13:21.790Z,3.22
2022-08-20T14:15:48.468Z,2.90
2022-08-20T14:18:15.345Z,3.15
2022-08-20T14:20:42.051Z,2.97
2022-08-20T14:23:11.743Z,3.05
2022-08-20T14:25:38.003Z,3.13
2022-08-20T14:28:15.278Z,2.53
2022-08-20T14:30:44.865Z,2.80
2022-08-20T14:33:11.457Z,2.85
2022-08-20T14:35:38.179Z,2.63
2022-08-20T14:38:05.368Z,2.90
2022-08-20T14:40:32.266Z,2.80
2022-08-20T14:42:58.840Z,2.70
2022-08-20T14:45:25.377Z,3.05
2022-08-20T14:47:56.946Z,2.72
2022-08-20T14:50:25.329Z,2.47
2022-08-20T14:52:52.150Z,2.50
2022-08-20T14:55:20.238Z,2.90
2022-08-20T14:57:46.665Z,2.20
2022-08-20T15:00:18.054Z,2.90
2022-08-20T15:02:44.929Z,2.50
2022-08-20T15:05:11.539Z,2.20
2022-08-20T15:07:39.423Z,2.33
2022-08-20T15:10:07.281Z,2.58
2022-08-20T15:12:35.178Z,2.88
2022-08-20T15:15:13.564Z,2.45
2022-08-20T15:17:49.883Z,2.28
2022-08-20T15:20:20.669Z,2.47
2022-08-20T15:22:47.440Z,2.00
2022-08-20T15:25:15.651Z,2.38
2022-08-20T15:27:42.375Z,1.88
2022-08-20T15:30:10.863Z,1.80
2022-08-20T15:32:37.286Z,2.50
2022-08-20T15:35:03.794Z,2.42
2022-08-20T15:37:30.195Z,2.08
2022-08-20T15:39:56.819Z,2.38
2022-08-20T15:42:23.562Z,2.10
2022-08-20T15:44:50.387Z,2.47
2022-08-20T15:47:16.650Z,2.38
2022-08-20T15:49:43.718Z,2.15
2022-08-20T15:52:10.802Z,2.17
2022-08-20T15:54:37.246Z,2.70
2022-08-20T15:57:11.982Z,2.58
2022-08-20T15:59:44.334Z,2.58
2022-08-20T16:02:29.364Z,2.30
2022-08-20T16:05:03.606Z,2.55
2022-08-20T16:07:37.496Z,2.60
2022-08-20T16:10:18.604Z,2.42
2022-08-20T16:12:48.101Z,2.75
2022-08-20T16:15:18.700Z,2.90
2022-08-20T16:17:55.069Z,2.97
2022-08-20T16:20:33.041Z,2.78
2022-08-20T16:23:02.758Z,2.90
2022-08-20T16:25:31.067Z,2.78
2022-08-20T16:28:00.121Z,2.70
2022-08-20T16:30:29.362Z,3.40
2022-08-20T16:33:02.360Z,2.88
2022-08-20T16:35:30.213Z,3.00
2022-08-20T16:38:21.233Z,2.97
2022-08-20T16:40:49.863Z,3.42
2022-08-20T16:43:31.543Z,3.17
2022-08-20T16:46:07.099Z,3.53
2022-08-20T16:48:38.710Z,3.55
2022-08-20T16:51:07.110Z,3.05
2022-08-20T16:53:33.470Z,3.00
2022-08-20T16:55:59.932Z,2.88
2022-08-20T16:58:26.283Z,3.28
2022-08-20T17:01:04.192Z,3.97
2022-08-20T17:03:39.150Z,3.78
2022-08-20T17:06:19.355Z,3.78
2022-08-20T17:08:47.426Z,4.13
2022-08-20T17:11:21.946Z,4.32
2022-08-20T17:13:48.814Z,4.00
2022-08-20T17:16:15.083Z,4.70
2022-08-20T17:18:42.860Z,4.55
2022-08-20T17:21:11.902Z,4.80
2022-08-20T17:23:54.998Z,4.25
2022-08-20T17:26:29.213Z,4.20
2022-08-20T17:28:56.522Z,4.57
2022-08-20T17:31:32.038Z,4.55
2022-08-20T17:34:05.399Z,4.75
2022-08-20T17:36:34.110Z,4.10
2022-08-20T17:39:01.199Z,4.85
2022-08-20T17:41:30.003Z,4.60
2022-08-20T17:43:57.523Z,4.72
2022-08-20T17:46:24.792Z,4.50
2022-08-20T17:48:51.551Z,4.32
2022-08-20T17:51:23.739Z,4.90
2022-08-20T17:53:52.683Z,4.25
2022-08-20T17:56:21.289Z,4.57
2022-08-20T17:58:54.336Z,3.95
2022-08-20T18:01:22.179Z,4.15
2022-08-20T18:03:49.744Z,4.70
2022-08-20T18:06:26.151Z,5.00
2022-08-20T18:09:12.287Z,4.50
2022-08-20T18:11:48.347Z,4.43
2022-08-20T18:14:14.584Z,4.70
2022-08-20T18:16:49.944Z,4.43
2022-08-20T18:19:48.146Z,4.45
2022-08-20T18:22:26.144Z,3.80
2022-08-20T18:24:58.748Z,4.30
2022-08-20T18:27:26.307Z,4.60
2022-08-20T18:29:56.587Z,4.50
2022-08-20T18:32:31.229Z,4.00
2022-08-20T18:35:17.451Z,4.43
2022-08-20T18:37:43.903Z,4.88
2022-08-20T18:40:16.160Z,4.32
2022-08-20T18:42:42.584Z,4.80
2022-08-20T18:45:09.095Z,4.75
2022-08-20T18:47:35.330Z,4.63
2022-08-20T18:50:24.962Z,4.90
2022-08-20T18:53:11.579Z,4.55
2022-08-20T18:55:42.173Z,4.32
2022-08-20T18:58:09.898Z,5.00
2022-08-20T19:00:41.268Z,5.03
2022-08-20T19:05:46.025Z,4.38
2022-08-20T19:08:15.624Z,4.60
2022-08-20T19:10:48.037Z,4.68
2022-08-20T19:13:32.439Z,5.05
2022-08-20T19:16:02.315Z,4.75
2022-08-20T19:18:42.102Z,5.20
2022-08-20T19:21:15.959Z,5.05
2022-08-20T19:23:47.619Z,5.05
2022-08-20T19:28:53.745Z,4.70
2022-08-20T19:31:23.229Z,4.88
2022-08-20T19:33:51.579Z,4.32
2022-08-20T19:36:28.114Z,4.43
2022-08-20T19:38:55.881Z,4.97
2022-08-20T19:41:31.062Z,5.18
2022-08-20T19:43:57.953Z,4.57
2022-08-20T19:46:27.949Z,5.40
2022-08-20T19:49:09.701Z,5.35
2022-08-20T19:51:45.869Z,5.28
2022-08-20T19:54:21.875Z,4.85
2022-08-20T19:56:48.447Z,4.78
2022-08-20T19:59:20.879Z,5.05
2022-08-20T20:01:58.646Z,5.18
2022-08-20T20:04:29.231Z,5.20
2022-08-20T20:06:58.241Z,5.97
2022-08-20T20:09:28.946Z,5.85
2022-08-20T20:11:55.239Z,5.27
2022-08-20T20:14:25.384Z,5.97
2022-08-20T20:16:52.330Z,5.90
2022-08-20T20:19:27.703Z,6.18
2022-08-20T20:22:18.772Z,5.82
2022-08-20T20:24:47.738Z,5.63
2022-08-20T20:27:22.319Z,6.10
2022-08-20T20:29:48.648Z,6.20
2022-08-20T20:32:19.117Z,6.15
2022-08-20T20:34:55.262Z,5.82
2022-08-20T20:37:48.679Z,5.75
2022-08-20T20:40:25.581Z,5.10
2022-08-20T20:43:05.823Z,5.60
2022-08-20T20:45:34.789Z,5.65
2022-08-20T20:48:07.758Z,5.60
2022-08-20T20:50:34.990Z,5.55
2022-08-20T20:53:01.716Z,6.15
2022-08-20T20:55:32.115Z,5.93
2022-08-20T20:57:58.851Z,5.80
2022-08-20T21:00:31.158Z,5.80
2022-08-20T21:02:57.526Z,6.50
2022-08-20T21:05:27.033Z,6.40
2022-08-20T21:07:54.885Z,5.88
2022-08-20T21:10:22.391Z,5.85
2022-08-20T21:12:52.692Z,6.30
2022-08-20T21:15:20.212Z,6.97
2022-08-20T21:17:46.587Z,6.95
2022-08-20T21:20:12.885Z,5.97
2022-08-20T21:22:39.260Z,6.18
2022-08-20T21:25:05.800Z,6.10
2022-08-20T21:27:32.595Z,6.10
2022-08-20T21:29:58.979Z,6.28
2022-08-20T21:32:25.204Z,6.53
2022-08-20T21:34:51.808Z,6.40
2022-08-20T21:37:18.209Z,6.38
2022-08-20T21:39:45.056Z,5.88
2022-08-20T21:42:28.575Z,6.38
2022-08-20T21:44:56.224Z,6.30
2022-08-20T21:47:22.700Z,6.18
2022-08-20T21:49:49.040Z,6.15
2022-08-20T21:52:15.314Z,6.45
2022-08-20T21:54:41.560Z,6.32
2022-08-20T21:57:10.142Z,6.22
2022-08-20T21:59:37.787Z,6.35
2022-08-20T22:02:04.426Z,5.97
2022-08-20T22:04:35.256Z,6.30
2022-08-20T22:07:02.307Z,5.70
2022-08-20T22:09:30.181Z,5.53
2022-08-20T22:11:57.536Z,5.63
2022-08-20T22:14:27.415Z,6.60
2022-08-20T22:16:53.664Z,6.22
2022-08-20T22:19:20.204Z,6.15
2022-08-20T22:21:46.860Z,6.40
2022-08-20T22:24:13.388Z,5.80
2022-08-20T22:26:40.210Z,5.35
2022-08-20T22:29:07.466Z,5.55
2022-08-20T22:31:35.139Z,6.45
2022-08-20T22:34:01.605Z,6.03
2022-08-20T22:36:27.994Z,5.53
2022-08-20T22:38:54.929Z,5.45
2022-08-20T22:41:21.348Z,6.13
2022-08-20T22:43:56.444Z,5.88
2022-08-20T22:46:24.499Z,5.20
2022-08-20T22:48:53.050Z,6.03
2022-08-20T22:51:31.109Z,5.97
2022-08-20T22:53:58.115Z,6.28
2022-08-20T22:56:24.429Z,6.38
2022-08-20T22:58:50.957Z,5.90
2022-08-20T23:01:18.429Z,5.38
2022-08-20T23:03:45.297Z,6.43
2022-08-20T23:06:12.354Z,6.57
2022-08-20T23:08:38.724Z,5.90
2022-08-20T23:11:05.070Z,6.15
2022-08-20T23:13:31.369Z,5.70
2022-08-20T23:15:57.745Z,5.95
2022-08-20T23:18:24.218Z,5.97
2022-08-20T23:20:53.613Z,5.97
2022-08-20T23:23:20.578Z,5.57
2022-08-20T23:25:47.152Z,6.40
2022-08-20T23:28:13.456Z,5.80
2022-08-20T23:30:39.792Z,5.90
2022-08-20T23:33:06.030Z,6.78
2022-08-20T23:35:33.118Z,6.20
2022-08-20T23:37:59.665Z,6.15
2022-08-20T23:40:28.400Z,6.00
2022-08-20T23:42:55.396Z,5.40
2022-08-20T23:45:21.728Z,5.90
2022-08-20T23:47:48.028Z,5.53
2022-08-20T23:50:15.264Z,5.93
2022-08-20T23:52:41.530Z,5.85
2022-08-20T23:55:08.275Z,5.82
2022-08-20T23:57:34.775Z,5.35
